Time;durP1;ratioP1;P1;durP2;ratioP2;P2;SDS_P1;SDS_P2;PMS_P1;PMS_P2;Temp;Humidity;BMP_temperature;BMP_pressure;BME280_temperature;BME280_humidity;BME280_pressure;Samples;Min_cycle;Max_cycle;Signal;HPM_P1;HPM_P2
2022/05/26 00:01:18;;;;;;;28.83;6.93;;;14.30;99.90;;;;;;5116211;27;20482;-81
2022/05/26 00:03:46;;;;;;;36.28;7.25;;;14.30;99.90;;;;;;5111923;27;20102;-82
2022/05/26 00:06:14;;;;;;;29.40;6.90;;;14.30;99.90;;;;;;5116883;27;20513;-82
2022/05/26 00:08:41;;;;;;;34.92;7.40;;;14.20;99.90;;;;;;5112992;27;20482;-82
2022/05/26 00:11:14;;;;;;;32.58;6.68;;;14.20;99.90;;;;;;5124092;27;20059;-82
2022/05/26 00:13:41;;;;;;;34.38;7.20;;;14.20;99.90;;;;;;5116380;27;20043;-82
2022/05/26 00:16:07;;;;;;;33.70;7.25;;;14.10;99.90;;;;;;5097505;27;20076;-82
2022/05/26 00:18:33;;;;;;;32.35;7.18;;;14.10;99.90;;;;;;5094777;28;20327;-82
2022/05/26 00:20:59;;;;;;;36.20;8.00;;;14.20;99.90;;;;;;5098698;27;20046;-83
2022/05/26 00:23:25;;;;;;;39.65;7.60;;;14.10;99.90;;;;;;5118439;27;20043;-82
2022/05/26 00:25:50;;;;;;;40.92;7.80;;;14.00;99.90;;;;;;5111124;27;20097;-82
2022/05/26 00:28:16;;;;;;;41.55;8.27;;;14.10;99.90;;;;;;5121282;27;20036;-83
2022/05/26 00:30:42;;;;;;;43.70;8.38;;;14.10;99.90;;;;;;5115492;27;20032;-83
2022/05/26 00:33:08;;;;;;;40.17;7.93;;;14.10;99.90;;;;;;5116121;27;20080;-82
2022/05/26 00:35:36;;;;;;;43.38;8.15;;;14.00;99.90;;;;;;5113196;27;20058;-81
2022/05/26 00:38:04;;;;;;;41.45;9.20;;;14.10;99.90;;;;;;5113632;27;20058;-83
2022/05/26 00:40:30;;;;;;;40.28;8.30;;;14.10;99.90;;;;;;5115235;27;20115;-83
2022/05/26 00:42:56;;;;;;;50.92;8.23;;;14.10;99.90;;;;;;5118218;27;20372;-82
2022/05/26 00:45:22;;;;;;;45.28;8.68;;;14.00;99.90;;;;;;5094889;27;20123;-84
2022/05/26 00:47:49;;;;;;;44.90;8.45;;;13.90;99.90;;;;;;5116233;27;20148;-83
2022/05/26 00:50:18;;;;;;;44.45;8.90;;;13.90;99.90;;;;;;5116348;27;20425;-83
2022/05/26 00:52:54;;;;;;;39.63;8.38;;;13.90;99.90;;;;;;5112952;27;20454;-83
2022/05/26 00:55:40;;;;;;;42.05;8.32;;;13.90;99.90;;;;;;5106544;27;20045;-83
2022/05/26 00:58:23;;;;;;;40.92;8.77;;;13.90;99.90;;;;;;5096557;27;20046;-83
2022/05/26 01:00:49;;;;;;;40.85;8.43;;;13.90;99.90;;;;;;5099460;27;20372;-82
2022/05/26 01:03:53;;;;;;;48.85;9.10;;;13.90;99.90;;;;;;5099681;28;20491;-85
2022/05/26 01:06:26;;;;;;;46.78;8.70;;;13.80;99.90;;;;;;5040265;28;20155;-84
2022/05/26 01:08:57;;;;;;;44.78;8.55;;;13.90;99.90;;;;;;5084534;28;20109;-80
2022/05/26 01:11:24;;;;;;;32.47;7.53;;;13.80;99.90;;;;;;5045358;28;20108;-83
2022/05/26 01:13:55;;;;;;;44.88;9.57;;;13.90;99.90;;;;;;5032695;28;20041;-84
2022/05/26 01:16:51;;;;;;;48.92;8.13;;;13.90;99.90;;;;;;5045491;28;20056;-83
2022/05/26 01:19:19;;;;;;;;;;;13.80;99.90;;;;;;5012539;28;20112;-84
2022/05/26 01:21:52;;;;;;;;;;;13.90;99.90;;;;;;5012092;28;20330;-83
2022/05/26 01:24:17;;;;;;;;;;;13.80;99.90;;;;;;5029756;28;19924;-84
2022/05/26 01:26:43;;;;;;;;;;;13.90;99.90;;;;;;5044709;28;20027;-84
2022/05/26 01:29:27;;;;;;;;;;;13.80;99.90;;;;;;5033831;28;19921;-83
2022/05/26 01:32:19;;;;;;;;;;;13.70;99.90;;;;;;5027971;28;19935;-85
2022/05/26 01:35:07;;;;;;;;;;;13.80;99.90;;;;;;5025167;28;19945;-84
2022/05/26 01:37:35;;;;;;;;;;;13.80;99.90;;;;;;5045249;28;20375;-83
2022/05/26 01:40:16;;;;;;;;;;;13.90;99.90;;;;;;5014531;28;19928;-82
2022/05/26 01:42:51;;;;;;;;;;;13.90;99.90;;;;;;5030164;28;19970;-83
2022/05/26 01:45:29;;;;;;;;;;;13.90;99.90;;;;;;5101682;28;19926;-83
2022/05/26 01:48:06;;;;;;;;;;;13.90;99.90;;;;;;5101712;28;19922;-82
2022/05/26 01:50:43;;;;;;;;;;;13.90;99.90;;;;;;5083840;28;20015;-82
2022/05/26 01:53:15;;;;;;;;;;;13.90;99.90;;;;;;5100357;28;19923;-83
2022/05/26 01:55:56;;;;;;;;;;;14.00;99.90;;;;;;5079293;28;19920;-81
2022/05/26 01:58:28;;;;;;;;;;;13.90;99.90;;;;;;5100557;28;19920;-83
2022/05/26 02:00:54;;;;;;;;;;;14.00;99.90;;;;;;5105170;28;19915;-83
2022/05/26 02:03:22;;;;;;;;;;;13.80;99.90;;;;;;5100276;28;20591;-82
2022/05/26 02:05:51;;;;;;;;;;;13.80;99.90;;;;;;5098222;28;19998;-81
2022/05/26 02:08:37;;;;;;;;;;;13.90;99.90;;;;;;5100638;28;19923;-83
2022/05/26 02:11:17;;;;;;;;;;;13.90;99.90;;;;;;5095051;28;19949;-83
2022/05/26 02:13:46;;;;;;;;;;;13.90;99.90;;;;;;5098639;28;19920;-83
2022/05/26 02:16:23;;;;;;;;;;;13.80;99.90;;;;;;5122808;27;19924;-83
2022/05/26 02:18:54;;;;;;;;;;;13.80;99.90;;;;;;5116764;27;19915;-84
2022/05/26 02:21:41;;;;;;;;;;;13.70;99.90;;;;;;5117997;27;19937;-83
2022/05/26 02:24:09;;;;;;;;;;;13.70;99.90;;;;;;5116002;27;19920;-83
2022/05/26 02:26:35;;;;;;;;;;;13.80;99.90;;;;;;5136583;27;19965;-83
2022/05/26 02:31:45;;;;;;;;;;;13.40;99.90;;;;;;5115425;27;19919;-82
2022/05/26 02:34:14;;;;;;;;;;;13.70;99.90;;;;;;5127004;27;20386;-82
2022/05/26 02:36:41;;;;;;;;;;;13.60;99.90;;;;;;5126488;27;19915;-78
2022/05/26 02:39:07;;;;;;;;;;;13.60;99.90;;;;;;5129385;27;19920;-79
2022/05/26 02:41:33;;;;;;;;;;;13.50;99.90;;;;;;5128736;27;20388;-83
2022/05/26 02:43:59;;;;;;;;;;;13.60;99.90;;;;;;5101605;27;19915;-84
2022/05/26 02:46:42;;;;;;;;;;;13.50;99.90;;;;;;5104307;28;19922;-82
2022/05/26 02:49:13;;;;;;;;;;;13.50;99.90;;;;;;5108261;27;20015;-82
2022/05/26 02:51:39;;;;;;;;;;;13.50;99.90;;;;;;5097935;27;20804;-82
2022/05/26 02:54:10;;;;;;;;;;;13.50;99.90;;;;;;5119448;27;20002;-83
2022/05/26 02:56:54;;;;;;;;;;;13.80;99.90;;;;;;5132746;27;19915;-83
2022/05/26 02:59:19;;;;;;;;;;;13.30;99.90;;;;;;5118643;27;19915;-82
2022/05/26 03:01:56;;;;;;;;;;;13.30;99.90;;;;;;5116985;27;19973;-82
2022/05/26 03:04:34;;;;;;;;;;;13.30;99.90;;;;;;5117405;27;19919;-84
2022/05/26 03:07:02;;;;;;;;;;;13.00;99.90;;;;;;5099976;27;19923;-84
2022/05/26 03:09:32;;;;;;;;;;;13.30;99.90;;;;;;5123292;27;20362;-84
2022/05/26 03:11:57;;;;;;;;;;;13.20;99.90;;;;;;5114218;27;20396;-84
2022/05/26 03:14:24;;;;;;;;;;;13.20;99.90;;;;;;5126083;27;19927;-84
2022/05/26 03:16:49;;;;;;;;;;;13.10;99.90;;;;;;5140092;27;19915;-83
2022/05/26 03:19:15;;;;;;;;;;;13.20;99.90;;;;;;5120554;27;20910;-82
2022/05/26 03:21:41;;;;;;;;;;;13.20;99.90;;;;;;5123148;27;19921;-83
2022/05/26 03:24:10;;;;;;;;;;;13.20;99.90;;;;;;5154324;27;19925;-84
2022/05/26 03:26:36;;;;;;;;;;;13.20;99.90;;;;;;5105763;27;19915;-83
2022/05/26 03:29:03;;;;;;;;;;;13.30;99.90;;;;;;5156007;27;19957;-83
2022/05/26 03:31:30;;;;;;;;;;;13.10;99.90;;;;;;5133444;27;19923;-84
2022/05/26 03:42:11;;;;;;;;;;;13.10;99.90;;;;;;5137295;27;19926;-82
2022/05/26 03:44:36;;;;;;;;;;;13.10;99.90;;;;;;5136458;27;20144;-83
2022/05/26 03:47:02;;;;;;;;;;;13.10;99.90;;;;;;5138509;27;20302;-83
2022/05/26 03:49:27;;;;;;;;;;;13.10;99.90;;;;;;5099600;27;19926;-83
2022/05/26 03:51:53;;;;;;;;;;;13.00;99.90;;;;;;5138067;27;19915;-82
2022/05/26 03:54:19;;;;;;;;;;;13.10;99.90;;;;;;5118816;27;19941;-83
2022/05/26 03:56:45;;;;;;;;;;;13.00;99.90;;;;;;5110812;27;19982;-84
2022/05/26 03:59:10;;;;;;;;;;;13.00;99.90;;;;;;5118443;27;19976;-83
2022/05/26 04:01:36;;;;;;;;;;;13.00;99.90;;;;;;5107750;27;19914;-83
2022/05/26 04:04:02;;;;;;;;;;;12.90;99.90;;;;;;5127352;27;19915;-82
2022/05/26 04:06:28;;;;;;;;;;;13.20;99.90;;;;;;5150649;27;19914;-79
2022/05/26 04:09:05;;;;;;;;;;;13.00;99.90;;;;;;5124329;27;19923;-79
2022/05/26 04:11:31;;;;;;;;;;;13.00;99.90;;;;;;5128082;27;20356;-83
2022/05/26 04:13:57;;;;;;;;;;;13.20;99.90;;;;;;5106757;27;19923;-83
2022/05/26 04:16:23;;;;;;;;;;;13.10;99.90;;;;;;5104345;27;19942;-83
2022/05/26 04:18:50;;;;;;;;;;;13.20;99.90;;;;;;5102453;27;20282;-83
2022/05/26 04:21:16;;;;;;;;;;;13.10;99.90;;;;;;5102087;27;20418;-83
2022/05/26 04:23:41;;;;;;;;;;;13.20;99.90;;;;;;5100951;27;20017;-83
2022/05/26 04:26:08;;;;;;;;;;;13.20;99.90;;;;;;5110521;27;19967;-83
2022/05/26 04:28:34;;;;;;;;;;;13.20;99.90;;;;;;5103541;27;20006;-84
2022/05/26 04:31:00;;;;;;;;;;;13.10;99.90;;;;;;5121484;27;19918;-83
2022/05/26 04:33:25;;;;;;;;;;;13.30;99.90;;;;;;5119749;27;19966;-83
2022/05/26 04:35:52;;;;;;;;;;;13.20;99.90;;;;;;5119970;27;19958;-82
2022/05/26 04:38:19;;;;;;;;;;;13.40;99.90;;;;;;5106118;27;19919;-82
2022/05/26 04:40:45;;;;;;;;;;;13.30;99.90;;;;;;5116524;27;20694;-83
2022/05/26 04:43:11;;;;;;;;;;;13.30;99.90;;;;;;5119329;27;19927;-84
2022/05/26 04:45:36;;;;;;;;;;;13.30;99.90;;;;;;5133190;27;19950;-82
2022/05/26 04:48:02;;;;;;;;;;;13.40;99.90;;;;;;5116313;27;19915;-84
2022/05/26 04:50:28;;;;;;;;;;;13.30;99.90;;;;;;5124168;27;19926;-83
2022/05/26 04:52:53;;;;;;;;;;;13.50;99.90;;;;;;5097817;27;19967;-83
2022/05/26 04:55:19;;;;;;;;;;;13.40;99.90;;;;;;5116372;27;19919;-83
2022/05/26 04:57:44;;;;;;;;;;;13.40;99.90;;;;;;5139404;27;19923;-83
2022/05/26 05:00:14;;;;;;;;;;;13.40;99.90;;;;;;5118197;27;19919;-84
2022/05/26 05:02:40;;;;;;;;;;;13.50;99.90;;;;;;5121271;27;19915;-89
2022/05/26 05:05:06;;;;;;;;;;;13.60;99.90;;;;;;5122385;27;19930;-88
2022/05/26 05:07:32;;;;;;;;;;;13.70;99.90;;;;;;5104214;27;19915;-85
2022/05/26 05:13:23;;;;;;;;;;;14.00;99.90;;;;;;5140402;27;19930;-86
2022/05/26 05:15:58;;;;;;;;;;;14.20;99.90;;;;;;5127947;27;19926;-82
2022/05/26 05:18:23;;;;;;;;;;;14.30;99.90;;;;;;5131179;27;20395;-84
2022/05/26 05:20:49;;;;;;;;;;;14.30;99.90;;;;;;5105727;27;19916;-82
2022/05/26 05:23:15;;;;;;;;;;;14.30;99.90;;;;;;5126405;27;20374;-83
2022/05/26 05:25:43;;;;;;;;;;;14.50;99.90;;;;;;5123622;27;19972;-83
2022/05/26 05:28:13;;;;;;;;;;;14.50;99.90;;;;;;5103836;27;20273;-84
2022/05/26 05:30:47;;;;;;;;;;;14.60;99.90;;;;;;5130663;27;19918;-84
2022/05/26 05:33:19;;;;;;;;;;;14.70;99.90;;;;;;5109407;27;19915;-86
2022/05/26 05:35:52;;;;;;;;;;;14.60;99.90;;;;;;5139746;27;19907;-86
2022/05/26 05:38:18;;;;;;;;;;;14.50;99.90;;;;;;5124741;27;19903;-82
2022/05/26 05:40:45;;;;;;;;;;;14.60;99.90;;;;;;5129948;27;19967;-87
2022/05/26 05:43:10;;;;;;;;;;;14.60;99.90;;;;;;5104404;27;19915;-85
2022/05/26 05:45:37;;;;;;;;;;;14.50;99.90;;;;;;5138303;27;19919;-84
2022/05/26 05:48:03;;;;;;;;;;;14.40;99.90;;;;;;5112377;27;20010;-84
2022/05/26 05:50:28;;;;;;;;;;;14.40;99.90;;;;;;5141250;27;20418;-85
2022/05/26 05:52:54;;;;;;;;;;;14.40;99.90;;;;;;5096419;27;20483;-84
2022/05/26 05:55:19;;;;;;;;;;;14.30;99.90;;;;;;5133753;27;20396;-83
2022/05/26 05:57:45;;;;;;;;;;;14.30;99.90;;;;;;5111630;27;20354;-85
2022/05/26 06:00:11;;;;;;;;;;;14.30;99.90;;;;;;5118860;27;19954;-85
2022/05/26 06:02:36;;;;;;;;;;;14.40;99.90;;;;;;5100459;27;20028;-85
2022/05/26 06:05:03;;;;;;;;;;;14.30;99.90;;;;;;5109447;27;19962;-85
2022/05/26 06:07:29;;;;;;;;;;;14.50;99.90;;;;;;5117516;27;19964;-85
2022/05/26 06:09:54;;;;;;;;;;;14.50;99.90;;;;;;5115969;27;19932;-85
2022/05/26 06:12:20;;;;;;;;;;;14.50;99.90;;;;;;5112843;27;19923;-85
2022/05/26 06:14:46;;;;;;;;;;;14.50;99.90;;;;;;5099533;27;19920;-85
2022/05/26 06:17:15;;;;;;;;;;;14.50;99.90;;;;;;5118133;27;20338;-85
2022/05/26 06:19:42;;;;;;;;;;;14.60;99.90;;;;;;5098799;27;19918;-87
2022/05/26 06:22:20;;;;;;;;;;;13.90;99.90;;;;;;5116300;27;19937;-82
2022/05/26 06:24:46;;;;;;;;;;;14.70;99.90;;;;;;5138906;27;19924;-81
2022/05/26 06:30:05;;;;;;;;;;;14.90;99.90;;;;;;5139172;27;19979;-82
2022/05/26 06:38:09;;;;;;;;;;;15.10;99.90;;;;;;5119671;27;19915;-82
2022/05/26 06:40:35;;;;;;;;;;;15.30;99.90;;;;;;5111830;27;19919;-81
2022/05/26 06:43:00;;;;;;;;;;;15.40;99.90;;;;;;5124344;27;19927;-82
2022/05/26 06:45:26;;;;;;;;;;;15.50;99.90;;;;;;5140745;27;20014;-81
2022/05/26 06:47:51;;;;;;;;;;;15.60;99.90;;;;;;5122626;27;19987;-81
2022/05/26 06:50:17;;;;;;;;;;;15.50;99.90;;;;;;5118840;27;19955;-81
2022/05/26 06:52:43;;;;;;;;;;;15.60;99.90;;;;;;5121051;27;20014;-79
2022/05/26 06:55:09;;;;;;;;;;;15.60;99.90;;;;;;5103346;27;19954;-84
2022/05/26 06:57:35;;;;;;;;;;;15.70;99.90;;;;;;5102635;27;19915;-83
2022/05/26 07:00:00;;;;;;;;;;;15.80;99.90;;;;;;5109615;27;19926;-82
2022/05/26 07:02:26;;;;;;;;;;;15.70;99.90;;;;;;5106886;27;19926;-81
2022/05/26 07:04:52;;;;;;;;;;;15.60;99.90;;;;;;5112993;27;19973;-79
2022/05/26 07:07:17;;;;;;;;;;;15.50;99.90;;;;;;5113236;27;19915;-80
2022/05/26 07:10:03;;;;;;;;;;;15.70;99.90;;;;;;5100994;27;19926;-81
2022/05/26 07:12:28;;;;;;;;;;;15.60;99.90;;;;;;5119127;27;20272;-80
2022/05/26 07:14:54;;;;;;;;;;;15.60;99.90;;;;;;5097492;27;19929;-79
2022/05/26 07:17:20;;;;;;;;;;;15.70;99.90;;;;;;5122996;27;19915;-79
2022/05/26 07:19:46;;;;;;;;;;;15.80;99.90;;;;;;5112970;27;19919;-78
2022/05/26 07:22:13;;;;;;;;;;;15.80;99.90;;;;;;5115204;27;20364;-81
2022/05/26 07:24:40;;;;;;;;;;;15.80;99.90;;;;;;5111497;27;19919;-79
2022/05/26 07:27:06;;;;;;;;;;;15.80;99.90;;;;;;5136197;27;20004;-79
2022/05/26 07:29:31;;;;;;;;;;;16.00;99.90;;;;;;5112706;27;20008;-82
2022/05/26 07:31:58;;;;;;;;;;;16.00;99.90;;;;;;5116529;27;19926;-81
2022/05/26 07:34:24;;;;;;;;;;;16.10;99.90;;;;;;5137827;27;20425;-82
2022/05/26 07:42:23;;;;;;;;;;;16.60;99.90;;;;;;5139362;27;20265;-84
2022/05/26 07:44:49;;;;;;;;;;;16.70;99.90;;;;;;5101148;27;19930;-82
2022/05/26 07:47:16;;;;;;;;;;;16.80;99.90;;;;;;5100467;27;19954;-82
2022/05/26 07:49:47;;;;;;;;;;;16.80;99.90;;;;;;5116340;27;19927;-83
2022/05/26 07:52:14;;;;;;;;;;;16.80;99.90;;;;;;5102641;27;19930;-83
2022/05/26 07:54:40;;;;;;;;;;;16.80;99.90;;;;;;5136079;27;20005;-85
2022/05/26 07:57:06;;;;;;;;;;;16.90;99.90;;;;;;5117987;27;20425;-80
2022/05/26 07:59:32;;;;;;;;;;;17.00;99.90;;;;;;5097123;27;19920;-82
2022/05/26 08:01:58;;;;;;;;;;;16.90;99.90;;;;;;5120193;27;19919;-81
2022/05/26 08:04:23;;;;;;;;;;;16.80;99.90;;;;;;5117176;27;20390;-77
2022/05/26 08:06:49;;;;;;;;;;;16.80;99.90;;;;;;5118329;27;19915;-79
2022/05/26 08:09:15;;;;;;;;;;;16.80;99.90;;;;;;5099219;27;19915;-82
2022/05/26 08:11:41;;;;;;;;;;;16.80;99.90;;;;;;5111091;27;19961;-77
2022/05/26 08:14:07;;;;;;;;;;;16.80;99.90;;;;;;5111194;27;19947;-78
2022/05/26 08:16:32;;;;;;;;;;;16.70;99.90;;;;;;5121436;27;19923;-78
2022/05/26 08:18:58;;;;;;;;;;;16.80;99.90;;;;;;5102313;27;19930;-78
2022/05/26 08:21:23;;;;;;;;;;;16.80;99.90;;;;;;5102353;27;19919;-79
2022/05/26 08:23:49;;;;;;;;;;;17.00;99.90;;;;;;5100120;27;20278;-76
2022/05/26 08:26:15;;;;;;;;;;;17.20;99.90;;;;;;5115020;27;19995;-76
2022/05/26 08:28:42;;;;;;;;;;;17.10;99.90;;;;;;5120202;27;19962;-77
2022/05/26 08:31:13;;;;;;;;;;;17.20;99.90;;;;;;5122657;27;19938;-77
2022/05/26 08:33:38;;;;;;;;;;;17.40;99.90;;;;;;5130249;27;19914;-77
2022/05/26 08:36:06;;;;;;;;;;;17.40;99.90;;;;;;5109424;27;19930;-79
2022/05/26 08:38:31;;;;;;;;;;;17.50;99.90;;;;;;5097875;27;19924;-78
2022/05/26 08:40:57;;;;;;;;;;;17.70;99.90;;;;;;5116201;27;20251;-78
2022/05/26 08:43:24;;;;;;;;;;;17.50;99.90;;;;;;5116400;27;19922;-80
2022/05/26 08:45:51;;;;;;;;;;;17.40;99.90;;;;;;5113829;27;19940;-81
2022/05/26 08:48:32;;;;;;;;;;;17.30;99.90;;;;;;5113211;27;19915;-77
2022/05/26 08:50:57;;;;;;;;;;;17.40;99.90;;;;;;5120840;27;19968;-79
2022/05/26 08:53:27;;;;;;;;;;;17.60;99.90;;;;;;5111288;27;19931;-78
2022/05/26 08:55:54;;;;;;;;;;;17.60;99.90;;;;;;5115497;27;19919;-77
2022/05/26 08:58:27;;;;;;;;;;;17.60;99.90;;;;;;5116157;27;19942;-77
2022/05/26 09:00:53;;;;;;;;;;;17.60;99.90;;;;;;5111431;27;19923;-77
2022/05/26 09:03:26;;;;;;;;;;;17.50;99.90;;;;;;5098509;27;19991;-81
2022/05/26 09:06:03;;;;;;;;;;;17.60;99.90;;;;;;5109755;27;19919;-82
2022/05/26 09:14:00;;;;;;;;;;;17.50;99.90;;;;;;5117767;27;19923;-79
2022/05/26 09:16:27;;;;;;;;;;;17.70;99.90;;;;;;5104830;28;19928;-79
2022/05/26 09:19:13;;;;;;;;;;;17.80;99.90;;;;;;5093523;28;19915;-78
2022/05/26 09:21:39;;;;;;;;;;;17.80;99.90;;;;;;5114784;27;19916;-75
2022/05/26 09:24:17;;;;;;;;;;;18.00;99.90;;;;;;5096734;28;19964;-81
2022/05/26 09:26:47;;;;;;;;;;;18.40;99.90;;;;;;5096806;28;19931;-79
2022/05/26 09:29:13;;;;;;;;;;;18.20;99.90;;;;;;5112777;28;19923;-80
2022/05/26 09:31:48;;;;;;;;;;;18.30;99.90;;;;;;5110123;28;19915;-79
2022/05/26 09:34:14;;;;;;;;;;;18.30;99.90;;;;;;5131378;27;19920;-79
2022/05/26 09:36:56;;;;;;;;;;;18.40;99.90;;;;;;5113332;28;19915;-80
2022/05/26 09:39:25;;;;;;;;;;;18.30;99.90;;;;;;5094706;28;20285;-77
2022/05/26 09:41:52;;;;;;;;;;;18.10;99.90;;;;;;5113271;28;19923;-82
2022/05/26 09:44:24;;;;;;;;;;;17.90;99.90;;;;;;5099702;28;19979;-81
2022/05/26 09:46:51;;;;;;;;;;;18.00;99.90;;;;;;5108564;28;19915;-80
2022/05/26 09:49:21;;;;;;;;;;;17.90;99.90;;;;;;5096631;28;19922;-81
2022/05/26 09:51:46;;;;;;;;;;;17.80;99.90;;;;;;5113659;28;19981;-80
2022/05/26 09:54:27;;;;;;;;;;;17.90;99.90;;;;;;5113365;28;20247;-81
2022/05/26 09:56:52;;;;;;;;;;;18.10;99.90;;;;;;5111739;28;19927;-80
2022/05/26 09:59:29;;;;;;;;;;;18.20;99.90;;;;;;5121317;28;19915;-78
2022/05/26 10:02:07;;;;;;;;;;;18.20;99.90;;;;;;5111973;28;19942;-77
2022/05/26 10:04:35;;;;;;;;;;;18.40;99.90;;;;;;5108313;27;20391;-80
2022/05/26 10:07:01;;;;;;;;;;;18.50;99.90;;;;;;5134831;27;19924;-81
2022/05/26 10:09:41;;;;;;;;;;;18.70;99.90;;;;;;5129431;27;20353;-80
2022/05/26 10:12:26;;;;;;;;;;;18.70;99.90;;;;;;5100743;27;19916;-81
2022/05/26 10:15:10;;;;;;;;;;;18.80;99.90;;;;;;5101129;28;20014;-82
2022/05/26 10:17:55;;;;;;;;;;;18.60;99.90;;;;;;5127691;27;19964;-81
2022/05/26 10:20:41;;;;;;;;;;;19.00;99.90;;;;;;5096702;28;20531;-80
2022/05/26 10:23:06;;;;;;;;;;;18.90;99.90;;;;;;5123176;27;19915;-81
2022/05/26 10:25:38;;;;;;;;;;;18.70;99.90;;;;;;5101386;28;20080;-81
2022/05/26 10:28:03;;;;;;;;;;;19.00;99.90;;;;;;5118417;27;19939;-81
2022/05/26 10:30:32;;;;;;;;;;;19.20;99.90;;;;;;5105425;28;19916;-82
2022/05/26 10:33:16;;;;;;;;;;;19.20;99.90;;;;;;5113835;27;19983;-80
2022/05/26 10:35:47;;;;;;;;;;;19.40;99.90;;;;;;5118028;27;19915;-81
2022/05/26 10:38:23;;;;;;;;;;;19.70;99.90;;;;;;5107873;27;20108;-82
2022/05/26 10:40:55;;;;;;;;;;;19.50;99.90;;;;;;5097573;28;19927;-81
2022/05/26 10:43:20;;;;;;;;;;;19.40;99.90;;;;;;5101122;28;20370;-78
2022/05/26 10:45:48;;;;;;;;;;;19.70;99.90;;;;;;5116398;27;19985;-79
2022/05/26 10:48:23;;;;;;;;;;;19.60;99.90;;;;;;5114709;27;20258;-82
2022/05/26 10:50:52;;;;;;;;;;;19.60;99.90;;;;;;5111329;27;19960;-81
2022/05/26 10:53:20;;;;;;;;;;;19.80;99.90;;;;;;5123244;27;19925;-83
2022/05/26 10:55:49;;;;;;;;;;;19.70;99.90;;;;;;5108871;27;19952;-79
2022/05/26 10:58:23;;;;;;;;;;;19.80;99.90;;;;;;5111140;27;19966;-79
2022/05/26 11:00:51;;;;;;;;;;;19.90;99.90;;;;;;5096572;27;19920;-80
2022/05/26 11:03:23;;;;;;;;;;;19.80;99.90;;;;;;5117738;27;19961;-80
2022/05/26 11:05:53;;;;;;;;;;;19.70;99.90;;;;;;5117658;27;20002;-79
2022/05/26 11:08:18;;;;;;;;;;;19.60;99.90;;;;;;5111860;27;19919;-80
2022/05/26 11:10:46;;;;;;;;;;;19.90;99.90;;;;;;5116787;27;19945;-80
2022/05/26 11:13:22;;;;;;;;;;;19.90;99.90;;;;;;5092320;28;19928;-81
2022/05/26 11:18:48;;;;;;;;;;;19.60;99.90;;;;;;5112425;27;19938;-78
2022/05/26 11:21:16;;;;;;;;;;;19.90;99.90;;;;;;5116636;27;20006;-76
2022/05/26 11:23:43;;;;;;;;;;;19.80;99.90;;;;;;5120670;27;19936;-76
2022/05/26 11:26:10;;;;;;;;;;;19.60;99.90;;;;;;5121198;27;19939;-78
2022/05/26 11:28:44;;;;;;;;;;;19.90;99.90;;;;;;5134579;27;19945;-75
2022/05/26 11:37:28;;;;;;;;;;;19.80;99.90;;;;;;5121559;27;19922;-76
2022/05/26 11:40:00;;;;;;;;;;;19.60;99.90;;;;;;5097327;27;19922;-77
2022/05/26 11:42:31;;;;;;;;;;;19.70;99.90;;;;;;5117842;27;20282;-76
2022/05/26 11:45:10;;;;;;;;;;;19.70;99.90;;;;;;5117897;27;19986;-76
2022/05/26 11:47:56;;;;;;;;;;;19.70;99.90;;;;;;5115303;27;19964;-76
2022/05/26 11:51:00;;;;;;;;;;;19.80;99.90;;;;;;5110309;27;20032;-76
2022/05/26 11:53:44;;;;;;;;;;;20.10;99.90;;;;;;5048612;28;20015;-76
2022/05/26 11:56:29;;;;;;;;;;;20.60;99.90;;;;;;5040990;28;19920;-78
2022/05/26 11:59:13;;;;;;;;;;;20.80;99.90;;;;;;5042495;28;19916;-76
2022/05/26 12:01:39;;;;;;;;;;;20.50;99.90;;;;;;5039195;28;20271;-77
2022/05/26 12:04:24;;;;;;;;;;;20.60;99.90;;;;;;5022383;28;19916;-78
2022/05/26 12:06:54;;;;;;;;;;;20.60;99.90;;;;;;5027349;28;19921;-76
2022/05/26 12:09:21;;;;;;;;;;;20.20;99.90;;;;;;5042910;28;19935;-76
2022/05/26 12:11:52;;;;;;;;;;;20.10;99.90;;;;;;5035567;28;19920;-75
2022/05/26 12:14:20;;;;;;;;;;;20.60;99.90;;;;;;5043627;28;20003;-76
2022/05/26 12:16:45;;;;;;;;;;;20.60;99.90;;;;;;5037724;28;20047;-75
2022/05/26 12:19:11;;;;;;;;;;;20.60;99.90;;;;;;5020216;28;20003;-75
2022/05/26 12:21:37;;;;;;;;;;;20.70;99.90;;;;;;5017483;28;19920;-75
2022/05/26 12:24:21;;;;;;;;;;;20.60;99.90;;;;;;5040109;28;19931;-75
2022/05/26 12:26:51;;;;;;;;;;;20.60;99.90;;;;;;5056829;27;19929;-75
2022/05/26 12:29:35;;;;;;;;;;;20.40;99.90;;;;;;5102739;27;19915;-77
2022/05/26 12:32:13;;;;;;;;;;;20.20;99.90;;;;;;5095737;28;20002;-75
2022/05/26 12:34:57;;;;;;;;;;;20.00;99.90;;;;;;5091369;27;19998;-75
2022/05/26 12:37:31;;;;;;;;;;;20.20;99.90;;;;;;5117903;27;19937;-76
2022/05/26 12:40:05;;;;;;;;;;;20.30;99.90;;;;;;5119831;27;19980;-73
2022/05/26 12:42:39;;;;;;;;;;;20.30;99.90;;;;;;5130452;27;20362;-74
2022/05/26 12:45:14;;;;;;;;;;;20.40;99.90;;;;;;5114926;27;19923;-75
2022/05/26 12:47:56;;;;;;;;;;;20.20;99.90;;;;;;5127611;27;19989;-75
2022/05/26 12:50:24;;;;;;;;;;;20.20;99.90;;;;;;5124329;27;19919;-75
2022/05/26 12:52:52;;;;;;;;;;;20.10;99.90;;;;;;5127268;27;20273;-75
2022/05/26 12:55:24;;;;;;;;;;;20.10;99.90;;;;;;5115043;27;19915;-74
2022/05/26 12:57:54;;;;;;;;;;;19.80;99.90;;;;;;5127507;27;20006;-74
2022/05/26 13:00:21;;;;;;;;;;;19.50;99.90;;;;;;5125861;27;19916;-77
2022/05/26 13:02:49;;;;;;;;;;;19.50;99.90;;;;;;5105463;27;19945;-76
2022/05/26 13:05:15;;;;;;;;;;;19.50;99.90;;;;;;5114626;27;19919;-79
2022/05/26 13:07:40;;;;;;;;;;;19.80;99.90;;;;;;5098546;27;20220;-77
2022/05/26 13:10:12;;;;;;;;;;;19.50;99.90;;;;;;5096163;28;19931;-78
2022/05/26 13:12:38;;;;;;;;;;;19.20;99.90;;;;;;5115016;27;19942;-77
2022/05/26 13:15:04;;;;;;;;;;;18.90;99.90;;;;;;5123575;27;20355;-77
2022/05/26 13:17:30;;;;;;;;;;;19.00;99.90;;;;;;5120045;28;19916;-76
2022/05/26 13:19:57;;;;;;;;;;;19.20;99.90;;;;;;5117012;28;19915;-77
2022/05/26 13:22:31;;;;;;;;;;;19.60;99.90;;;;;;5097845;28;19928;-78
2022/05/26 13:25:15;;;;;;;;;;;19.40;99.90;;;;;;5109881;28;19980;-79
2022/05/26 13:27:40;;;;;;;;;;;19.30;99.90;;;;;;5095642;28;20002;-79
2022/05/26 13:33:08;;;;;;;;;;;19.30;99.90;;;;;;5125113;27;19964;-78
2022/05/26 13:35:47;;;;;;;;;;;19.40;99.90;;;;;;5128432;28;19962;-78
2022/05/26 13:38:46;;;;;;;;;;;19.40;99.90;;;;;;5112709;28;19955;-78
2022/05/26 13:41:15;;;;;;;;;;;19.50;99.90;;;;;;5050821;28;19957;-77
2022/05/26 13:43:42;;;;;;;;;;;19.20;99.90;;;;;;5062622;28;19916;-78
2022/05/26 13:46:08;;;;;;;;;;;19.10;99.90;;;;;;5066822;28;20290;-78
2022/05/26 13:48:35;;;;;;;;;;;19.30;99.90;;;;;;5046257;28;19928;-78
2022/05/26 13:51:20;;;;;;;;;;;19.40;99.90;;;;;;5046416;28;19923;-81
2022/05/26 13:53:47;;;;;;;;;;;19.30;99.90;;;;;;5068971;28;19943;-77
2022/05/26 13:56:21;;;;;;;;;;;19.50;99.90;;;;;;5048302;28;19919;-78
2022/05/26 13:58:47;;;;;;;;;;;19.60;99.90;;;;;;5046842;28;20347;-77
2022/05/26 14:01:13;;;;;;;;;;;19.60;99.90;;;;;;5045354;28;20331;-76
2022/05/26 14:03:39;;;;;;;;;;;19.40;99.90;;;;;;5057598;28;20010;-78
2022/05/26 14:06:04;;;;;;;;;;;19.40;99.90;;;;;;5046502;28;19927;-77
2022/05/26 14:08:30;;;;;;;;;;;19.40;99.90;;;;;;5055250;28;19916;-79
2022/05/26 14:10:57;;;;;;;;;;;19.20;99.90;;;;;;5058901;28;20036;-79
2022/05/26 14:13:24;;;;;;;;;;;19.20;99.90;;;;;;5059176;28;19984;-78
2022/05/26 14:15:54;;;;;;;;;;;19.10;99.90;;;;;;5012343;28;1279468;-78
2022/05/26 14:18:23;;;;;;;;;;;19.10;99.90;;;;;;5108192;28;20011;-78
2022/05/26 14:21:04;;;;;;;;;;;19.10;99.90;;;;;;5096413;28;19981;-79
2022/05/26 14:23:30;;;;;;;;;;;19.10;99.90;;;;;;5120213;28;20365;-78
2022/05/26 14:26:01;;;;;;;;;;;19.00;99.90;;;;;;5114152;28;19953;-78
2022/05/26 14:28:32;;;;;;;;;;;18.90;99.90;;;;;;5120569;28;19926;-76
2022/05/26 14:30:57;;;;;;;;;;;18.60;99.90;;;;;;5125484;28;19915;-77
2022/05/26 14:33:28;;;;;;;;;;;18.50;99.90;;;;;;5110578;28;19961;-77
2022/05/26 14:35:54;;;;;;;;;;;18.20;99.90;;;;;;5108152;28;19977;-78
2022/05/26 14:38:19;;;;;;;;;;;18.10;99.90;;;;;;5107383;28;20321;-78
2022/05/26 14:40:46;;;;;;;;;;;18.20;99.90;;;;;;5097052;28;19953;-77
2022/05/26 14:43:14;;;;;;;;;;;18.20;99.90;;;;;;5095987;28;20421;-78
2022/05/26 14:45:39;;;;;;;;;;;18.20;99.90;;;;;;5095605;27;19924;-77
2022/05/26 14:48:05;;;;;;;;;;;18.20;99.90;;;;;;5112986;27;19957;-77
2022/05/26 14:50:31;;;;;;;;;;;18.10;99.90;;;;;;5093804;27;19968;-77
2022/05/26 14:52:57;;;;;;;;;;;18.00;99.90;;;;;;5098747;27;19961;-83
2022/05/26 14:55:27;;;;;;;;;;;17.90;99.90;;;;;;5114329;27;19919;-81
2022/05/26 14:57:54;;;;;;;;;;;17.90;99.90;;;;;;5102042;28;19930;-82
2022/05/26 15:00:22;;;;;;;;;;;17.90;99.90;;;;;;5124557;27;19916;-81
2022/05/26 15:02:48;;;;;;;;;;;17.80;99.90;;;;;;5104005;27;19916;-84
2022/05/26 15:05:14;;;;;;;;;;;17.70;99.90;;;;;;5129161;27;20263;-85
2022/05/26 15:07:40;;;;;;;;;;;17.80;99.90;;;;;;5133946;27;20002;-82